Weather at Charlottetown Airport

Public forecast

Using degrees Celsius for public forecast. Weather courtesy of forecast.io.

Current aviation weather report (METAR) for Charlottetown Airport

Report is more than 6 hours old.

2022/11/14 15:00 (retrieved 2 years ago)

CYYG 141500Z 27020G32KT 10SM -RA OVC012 04/02 A2959 RMK SC8 CIG RAG PRESRR SLP024

Aviation forecast (TAF) for Charlottetown Airport

Forecast is more than 12 hours old.

2023/02/22 18:42 (retrieved 1 year ago)

TAF CYYG 221740Z 2218/2306 26010KT P6SM FEW030 TEMPO 2218/2302 P6SM -SN BKN030 BECMG 2220/2222 32012KT FM230200 31012KT P6SM FEW025 RMK NXT FCST BY 230000Z